Time;durP1;ratioP1;P1;durP2;ratioP2;P2;SDS_P1;SDS_P2;PMS_P1;PMS_P2;Temp;Humidity;BMP_temperature;BMP_pressure;BME280_temperature;BME280_humidity;BME280_pressure;Samples;Min_cycle;Max_cycle;Signal;HPM_P1;HPM_P2
2021/12/21 00:00:12;;;;;;;6.22;2.60;;;;;;;1.25;60.40;100963.50;5419782;32;34998;-61
2021/12/21 00:03:15;;;;;;;8.43;2.50;;;;;;;2.56;56.79;100952.97;5424316;32;33254;-61
2021/12/21 00:06:18;;;;;;;;;;;;;;;1.76;58.20;100959.56;5419462;32;36658;-62
2021/12/21 00:09:22;;;;;;;4.50;2.00;;;;;;;2.38;55.84;100956.38;5409359;32;33168;-63
2021/12/21 00:12:29;;;;;;;5.83;1.73;;;;;;;2.83;54.63;100966.00;5403991;32;34622;-61
2021/12/21 00:22:09;;;;;;;4.50;1.70;;;;;;;1.63;56.01;100959.47;5417608;32;34429;-62
2021/12/21 00:25:13;;;;;;;6.20;1.90;;;;;;;2.38;54.02;100965.03;5442865;32;34827;-61
2021/12/21 00:28:18;;;;;;;4.20;1.90;;;;;;;2.19;53.48;100968.44;5407287;32;34065;-61
2021/12/21 00:31:24;;;;;;;4.65;1.70;;;;;;;2.29;53.43;100969.31;5424383;32;34716;-61
2021/12/21 00:34:27;;;;;;;3.90;1.70;;;;;;;1.31;55.68;100982.56;5418519;32;33853;-61
2021/12/21 00:37:29;;;;;;;4.03;1.70;;;;;;;2.35;52.01;100987.50;5404353;32;34120;-61
2021/12/21 00:40:34;;;;;;;4.33;1.70;;;;;;;1.87;52.39;100994.19;5416959;32;34525;-61
2021/12/21 00:43:38;;;;;;;6.18;1.95;;;;;;;1.41;53.25;101011.09;5418886;32;34104;-60
2021/12/21 00:46:40;;;;;;;4.43;1.80;;;;;;;1.59;52.52;101022.47;5412077;32;34255;-61
2021/12/21 00:49:46;;;;;;;4.03;2.00;;;;;;;1.42;53.13;101028.38;5421516;32;34081;-62
2021/12/21 00:52:50;;;;;;;3.47;1.70;;;;;;;1.90;51.38;101033.06;5410095;32;34567;-61
2021/12/21 00:55:53;;;;;;;6.00;1.50;;;;;;;1.51;52.43;101031.94;5411876;32;35412;-61
2021/12/21 00:58:55;;;;;;;4.50;1.60;;;;;;;1.55;51.29;101044.06;5422668;32;32988;-60
2021/12/21 01:01:59;;;;;;;2.30;1.33;;;;;;;1.55;51.36;101041.47;5434333;32;35702;-60
2021/12/21 01:05:03;;;;;;;;;;;;;;;1.75;50.22;101046.81;5418658;32;32545;-62
2021/12/21 01:08:07;;;;;;;3.53;1.60;;;;;;;1.62;50.91;101048.44;5422954;32;34561;-62
2021/12/21 01:11:18;;;;;;;;;;;;;;;2.21;49.55;101048.81;5412418;32;33161;-61
2021/12/21 01:21:19;;;;;;;5.50;1.73;;;;;;;0.97;52.27;101077.19;5420193;32;34917;-61
2021/12/21 01:25:23;;;;;;;3.70;1.60;;;;;;;0.80;52.70;101083.88;5424156;32;34017;-61
2021/12/21 01:37:55;;;;;;;3.53;1.70;;;;;;;1.11;51.84;101099.75;5419606;32;34266;-61
2021/12/21 01:41:05;;;;;;;4.37;1.70;;;;;;;0.60;53.13;101101.75;5396953;32;33866;-62
2021/12/21 01:50:32;;;;;;;4.27;1.47;;;;;;;0.85;52.47;101108.09;5430737;32;32929;-62
2021/12/21 01:53:35;;;;;;;3.57;1.83;;;;;;;0.70;52.81;101108.75;5422239;32;35394;-61
2021/12/21 01:56:38;;;;;;;5.07;2.17;;;;;;;0.46;53.67;101104.16;5420434;32;34592;-63
2021/12/21 01:59:42;;;;;;;5.53;2.17;;;;;;;0.73;52.95;101108.81;5441714;32;35294;-60
2021/12/21 02:02:44;;;;;;;3.25;2.03;;;;;;;0.36;53.39;101107.44;5431872;32;34460;-63
2021/12/21 02:05:47;;;;;;;3.70;1.57;;;;;;;0.52;52.84;101105.94;5424947;32;34220;-62
2021/12/21 02:08:51;;;;;;;4.97;1.25;;;;;;;0.10;54.15;101099.31;5434447;32;34216;-61
2021/12/21 02:11:55;;;;;;;;;;;;;;;0.64;52.65;101093.16;5418533;32;35531;-61
2021/12/21 02:15:01;;;;;;;4.60;1.70;;;;;;;0.22;53.46;101093.47;5419316;32;34432;-63
2021/12/21 02:21:22;;;;;;;2.63;1.27;;;;;;;0.28;53.56;101100.44;5417103;32;33273;-62
2021/12/21 02:24:37;;;;;;;3.83;1.60;;;;;;;0.24;53.43;101091.75;5411228;32;35275;-62
2021/12/21 02:27:54;;;;;;;5.53;1.80;;;;;;;0.70;52.02;101100.12;5399508;32;34407;-61
2021/12/21 02:30:58;;;;;;;4.60;2.00;;;;;;;0.13;53.24;101093.31;5412463;32;35447;-61
2021/12/21 02:34:00;;;;;;;6.00;1.60;;;;;;;0.33;52.81;101099.66;5417847;32;33960;-61
2021/12/21 02:37:03;;;;;;;3.95;1.65;;;;;;;0.48;52.30;101092.09;5415556;32;33153;-61
2021/12/21 02:40:07;;;;;;;3.43;1.70;;;;;;;-0.01;53.34;101090.53;5435241;32;32862;-61
2021/12/21 02:43:10;;;;;;;5.75;1.60;;;;;;;0.23;53.03;101092.59;5409624;32;35410;-61
2021/12/21 02:46:12;;;;;;;3.53;1.65;;;;;;;-0.03;52.86;101090.50;5421676;32;34594;-61
2021/12/21 02:49:15;;;;;;;5.27;1.83;;;;;;;0.05;52.80;101097.50;5425075;32;34908;-61
2021/12/21 02:52:18;;;;;;;4.33;1.90;;;;;;;0.09;52.67;101112.22;5425161;32;34090;-61
2021/12/21 02:55:21;;;;;;;3.37;1.20;;;;;;;0.19;52.00;101114.09;5408594;32;34286;-60
2021/12/21 02:58:24;;;;;;;5.75;1.83;;;;;;;0.06;52.64;101114.75;5416042;32;35549;-60
2021/12/21 03:01:28;;;;;;;6.70;1.60;;;;;;;0.01;52.35;101113.84;5434506;32;33097;-61
2021/12/21 03:04:30;;;;;;;;;;;;;;;-0.03;52.31;101128.41;5415131;32;33844;-61
2021/12/21 03:10:48;;;;;;;3.63;1.50;;;;;;;-0.08;51.96;101120.56;5426524;32;33246;-60
2021/12/21 03:14:03;;;;;;;5.37;2.00;;;;;;;0.08;51.58;101126.00;5414831;32;34663;-61
2021/12/21 03:17:07;;;;;;;3.17;1.63;;;;;;;0.45;50.56;101129.97;5396590;32;33015;-61
2021/12/21 03:20:10;;;;;;;5.57;1.45;;;;;;;0.31;51.29;101132.37;5426871;32;34622;-61
2021/12/21 03:23:14;;;;;;;4.63;1.50;;;;;;;0.00;51.45;101141.41;5394899;32;35367;-61
2021/12/21 03:26:19;;;;;;;3.23;1.83;;;;;;;0.74;50.04;101139.00;5407274;32;34584;-62
2021/12/21 03:29:21;;;;;;;4.67;1.50;;;;;;;0.59;50.23;101141.41;5407065;32;34274;-62
2021/12/21 03:32:25;;;;;;;4.33;1.50;;;;;;;0.06;51.53;101146.63;5391811;32;35377;-61
2021/12/21 03:35:28;;;;;;;4.50;1.50;;;;;;;0.23;50.88;101144.31;5426812;32;34725;-61
2021/12/21 03:38:31;;;;;;;3.40;1.80;;;;;;;0.63;50.29;101147.47;5420080;32;34609;-60
2021/12/21 03:41:36;;;;;;;4.22;1.30;;;;;;;0.08;50.76;101144.97;5414959;32;34368;-60
2021/12/21 03:44:39;;;;;;;7.17;2.07;;;;;;;0.96;49.01;101147.88;5421197;32;34640;-61
2021/12/21 03:47:45;;;;;;;4.30;1.50;;;;;;;0.40;50.16;101153.19;5421727;32;34888;-62
2021/12/21 03:50:48;;;;;;;;;;;;;;;0.29;50.55;101166.81;5419327;32;34798;-60
2021/12/21 03:53:50;;;;;;;4.50;1.30;;;;;;;0.59;49.70;101172.44;5421903;32;33436;-61
2021/12/21 03:56:53;;;;;;;4.93;1.60;;;;;;;-0.03;51.01;101164.59;5415304;32;34863;-62
2021/12/21 03:59:56;;;;;;;9.73;1.80;;;;;;;0.23;50.82;101171.03;5420776;32;35128;-60
2021/12/21 04:02:59;;;;;;;4.68;1.60;;;;;;;-0.20;51.57;101166.88;5414640;32;33835;-63
2021/12/21 04:06:02;;;;;;;4.33;1.53;;;;;;;-0.34;51.51;101170.94;5435690;32;36175;-63
2021/12/21 04:09:07;;;;;;;2.43;1.17;;;;;;;-0.09;51.20;101178.28;5417293;32;35369;-62
2021/12/21 04:12:09;;;;;;;3.03;1.20;;;;;;;-0.12;51.08;101179.94;5432951;32;34076;-61
2021/12/21 04:15:16;;;;;;;2.60;1.40;;;;;;;-0.04;50.97;101173.19;5409191;32;35267;-60
2021/12/21 04:18:21;;;;;;;5.73;1.40;;;;;;;0.33;50.03;101171.19;5411803;32;34898;-62
2021/12/21 04:21:23;;;;;;;3.07;1.10;;;;;;;0.46;49.11;101179.16;5410862;32;34206;-61
2021/12/21 04:24:26;;;;;;;4.17;1.50;;;;;;;0.05;50.41;101178.50;5414343;32;34262;-61
2021/12/21 04:27:29;;;;;;;5.18;1.70;;;;;;;0.43;48.76;101179.09;5422344;32;35035;-60
2021/12/21 04:30:32;;;;;;;4.00;1.17;;;;;;;0.78;48.00;101184.78;5384268;32;34239;-60
2021/12/21 04:33:35;;;;;;;3.60;1.50;;;;;;;-0.08;49.94;101189.47;5420886;32;33445;-62
2021/12/21 04:36:40;;;;;;;4.82;1.27;;;;;;;-0.30;50.45;101186.53;5422920;32;34454;-62
2021/12/21 04:39:50;;;;;;;5.67;1.43;;;;;;;0.23;48.85;101185.69;5430356;32;33991;-62
2021/12/21 04:42:54;;;;;;;2.57;1.40;;;;;;;-0.19;49.54;101188.41;5411004;32;35600;-61
2021/12/21 04:45:57;;;;;;;4.20;1.50;;;;;;;0.01;49.00;101193.94;5404730;32;33935;-62
2021/12/21 04:49:00;;;;;;;4.43;1.47;;;;;;;-0.29;49.34;101195.16;5403347;32;33867;-62
2021/12/21 04:52:05;;;;;;;4.63;1.50;;;;;;;-0.25;49.14;101199.53;5405023;32;33620;-61
2021/12/21 04:55:11;;;;;;;4.93;1.48;;;;;;;-0.19;48.55;101193.59;5428225;32;35536;-61
2021/12/21 04:58:20;;;;;;;3.70;1.40;;;;;;;-0.26;48.97;101202.94;5385297;32;34765;-62
2021/12/21 05:01:23;;;;;;;14.27;2.00;;;;;;;-0.24;48.72;101209.03;5384864;32;33144;-60
2021/12/21 05:04:26;;;;;;;4.40;1.40;;;;;;;0.16;47.65;101199.37;5390654;32;33952;-61
2021/12/21 05:07:31;;;;;;;6.10;1.70;;;;;;;0.18;47.20;101205.41;5368713;32;33261;-61
2021/12/21 05:10:42;;;;;;;2.93;1.40;;;;;;;0.20;47.45;101214.09;5361405;33;33363;-62
2021/12/21 05:13:45;;;;;;;2.73;1.27;;;;;;;0.15;47.08;101220.91;5363466;32;35451;-62
2021/12/21 05:16:47;;;;;;;3.20;1.50;;;;;;;-0.29;48.42;101213.22;5383140;32;35047;-62
2021/12/21 05:19:51;;;;;;;3.50;1.60;;;;;;;0.12;47.36;101215.66;5390424;32;34479;-62
2021/12/21 05:22:57;;;;;;;3.07;1.30;;;;;;;0.14;47.08;101232.09;5369436;32;33609;-63
2021/12/21 05:26:00;;;;;;;6.43;1.73;;;;;;;0.05;46.87;101237.94;5377298;32;34221;-62
2021/12/21 05:29:04;;;;;;;5.47;2.23;;;;;;;0.22;46.33;101251.16;5388443;32;36086;-62
2021/12/21 05:32:07;;;;;;;4.07;1.20;;;;;;;0.73;45.69;101247.66;5389391;32;34570;-62
2021/12/21 05:35:10;;;;;;;4.27;1.40;;;;;;;0.24;45.76;101247.75;5377924;32;32997;-63
2021/12/21 05:38:18;;;;;;;4.83;1.63;;;;;;;0.80;45.33;101246.91;5369702;32;34958;-63
2021/12/21 05:41:28;;;;;;;3.83;1.33;;;;;;;0.61;45.71;101247.47;5378906;32;33587;-62
2021/12/21 05:44:30;;;;;;;3.40;1.60;;;;;;;0.37;45.64;101247.97;5390667;32;34139;-61
2021/12/21 05:47:33;;;;;;;5.73;1.57;;;;;;;0.58;46.25;101250.00;5395720;32;34338;-62
2021/12/21 05:50:36;;;;;;;8.43;2.13;;;;;;;0.09;47.35;101251.81;5383667;32;34274;-62
2021/12/21 05:53:38;;;;;;;2.77;1.40;;;;;;;0.69;46.05;101256.22;5383415;32;32994;-62
2021/12/21 05:56:41;;;;;;;7.77;1.87;;;;;;;0.34;46.36;101260.84;5355236;32;34648;-64
2021/12/21 05:59:44;;;;;;;3.33;1.50;;;;;;;0.32;45.50;101258.22;5387247;32;34199;-61
2021/12/21 06:02:48;;;;;;;7.43;2.00;;;;;;;0.31;45.50;101260.78;5408880;32;35146;-62
2021/12/21 06:05:50;;;;;;;6.57;1.93;;;;;;;0.48;45.35;101261.94;5402297;32;34104;-61
2021/12/21 06:08:55;;;;;;;4.60;1.60;;;;;;;0.13;45.71;101272.56;5425950;32;33986;-62
2021/12/21 06:12:11;;;;;;;2.63;1.33;;;;;;;1.11;44.16;101263.72;5396333;32;35043;-60
2021/12/21 06:28:31;;;;;;;3.70;1.47;;;;;;;0.72;43.40;101302.84;5419454;32;35062;-62
2021/12/21 06:31:35;;;;;;;5.00;1.57;;;;;;;1.63;41.60;101298.06;5404733;32;33856;-61
2021/12/21 06:34:40;;;;;;;3.27;1.50;;;;;;;0.82;42.88;101294.37;5403756;32;33221;-63
2021/12/21 06:37:44;;;;;;;4.87;1.67;;;;;;;1.15;42.92;101303.47;5398226;32;33922;-61
2021/12/21 06:40:47;;;;;;;5.55;1.62;;;;;;;1.35;42.42;101291.66;5397872;32;34086;-62
2021/12/21 06:43:49;;;;;;;7.13;2.07;;;;;;;0.97;42.99;101301.50;5382896;32;33985;-64
2021/12/21 06:53:29;;;;;;;5.27;2.10;;;;;;;1.81;42.18;101320.75;5401058;32;35056;-65
2021/12/21 06:56:33;;;;;;;6.72;1.80;;;;;;;1.53;43.50;101320.38;5402149;32;35485;-64
2021/12/21 06:59:37;;;;;;;5.12;1.67;;;;;;;0.82;44.89;101323.69;5398615;32;33969;-61
2021/12/21 07:02:42;;;;;;;5.27;1.73;;;;;;;1.39;44.22;101319.34;5398191;32;34038;-61
2021/12/21 07:05:47;;;;;;;6.97;2.00;;;;;;;1.15;45.35;101329.38;5397741;32;34790;-63
2021/12/21 07:18:57;;;;;;;6.03;1.60;;;;;;;0.56;47.18;101331.91;5330793;32;35579;-63
2021/12/21 07:22:05;;;;;;;4.05;1.60;;;;;;;0.59;47.61;101350.06;5411091;32;33980;-66
2021/12/21 07:25:09;;;;;;;5.17;2.10;;;;;;;0.88;47.07;101333.28;5413010;32;34174;-62
2021/12/21 07:28:22;;;;;;;12.30;2.00;;;;;;;1.01;46.71;101342.97;5416928;32;35338;-67
2021/12/21 07:31:25;;;;;;;5.53;2.10;;;;;;;1.70;44.95;101341.34;5376150;32;32329;-64
2021/12/21 07:34:29;;;;;;;4.80;1.87;;;;;;;2.12;44.00;101340.94;5411839;32;35384;-63
2021/12/21 07:37:33;;;;;;;5.43;1.97;;;;;;;1.89;44.23;101338.13;5402695;32;31119;-66
2021/12/21 07:40:36;;;;;;;6.07;1.77;;;;;;;1.97;44.26;101350.28;5396978;32;35085;-65
2021/12/21 07:43:48;;;;;;;4.22;1.73;;;;;;;1.89;44.33;101347.62;5392663;32;34036;-68
2021/12/21 07:46:51;;;;;;;9.70;2.17;;;;;;;1.81;44.73;101344.06;5409924;32;32939;-65
2021/12/21 07:49:53;;;;;;;10.20;2.03;;;;;;;2.37;43.64;101341.19;5394932;32;33177;-68
2021/12/21 07:52:57;;;;;;;9.83;1.90;;;;;;;2.97;42.15;101337.41;5392934;32;35089;-65
2021/12/21 07:56:02;;;;;;;5.50;1.87;;;;;;;2.96;41.39;101338.22;5408681;32;34684;-68
2021/12/21 07:59:04;;;;;;;7.70;1.50;;;;;;;2.42;42.56;101352.50;5418708;32;36833;-68
2021/12/21 08:02:12;;;;;;;9.57;2.12;;;;;;;2.09;43.97;101347.84;5403572;32;34320;-66
2021/12/21 08:05:16;;;;;;;3.40;1.50;;;;;;;1.79;44.28;101351.81;5395878;32;34331;-70
2021/12/21 08:08:27;;;;;;;3.97;1.55;;;;;;;1.72;44.70;101349.13;5399376;32;35389;-71
2021/12/21 08:14:56;;;;;;;6.53;1.70;;;;;;;1.21;46.32;101357.94;5341070;32;33299;-67
2021/12/21 08:17:59;;;;;;;10.63;1.93;;;;;;;2.15;44.43;101353.09;5342257;32;32968;-69
2021/12/21 08:21:02;;;;;;;12.00;2.08;;;;;;;1.89;44.43;101364.03;5333027;33;33378;-64
2021/12/21 08:24:05;;;;;;;7.60;1.80;;;;;;;1.40;46.08;101362.53;5354069;32;33473;-66
2021/12/21 08:27:11;;;;;;;;;;;;;;;1.68;45.49;101356.00;5341097;33;32626;-68
2021/12/21 08:30:13;;;;;;;5.57;1.80;;;;;;;1.97;45.05;101363.25;5332877;33;33618;-66
2021/12/21 08:33:25;;;;;;;4.10;1.60;;;;;;;1.57;45.56;101363.63;5352228;32;33393;-68
2021/12/21 08:36:28;;;;;;;7.37;1.87;;;;;;;1.54;46.06;101367.91;5338461;32;34757;-65
2021/12/21 08:39:39;;;;;;;5.23;1.83;;;;;;;1.97;45.41;101364.12;5340165;32;35343;-68
2021/12/21 08:42:47;;;;;;;5.27;2.00;;;;;;;1.81;46.32;101372.59;5384747;32;34184;-68
2021/12/21 08:45:52;;;;;;;5.37;2.27;;;;;;;2.03;45.51;101376.28;5398762;32;34137;-67
2021/12/21 08:49:15;;;;;;;7.13;2.10;;;;;;;2.27;45.97;101370.50;5403774;32;35223;-74
2021/12/21 08:52:36;;;;;;;7.47;2.70;;;;;;;1.93;46.75;101377.88;5367423;32;39558;-67
2021/12/21 08:55:45;;;;;;;9.23;2.03;;;;;;;2.31;46.71;101374.84;5366306;32;35492;-65
2021/12/21 08:58:47;;;;;;;5.07;1.90;;;;;;;2.51;46.85;101381.12;5356978;32;34291;-70
2021/12/21 09:01:58;;;;;;;10.23;2.78;;;;;;;2.57;46.31;101377.72;5367160;32;34194;-69
2021/12/21 09:05:11;;;;;;;5.07;1.97;;;;;;;2.79;46.62;101376.19;5385760;32;32899;-63
2021/12/21 09:08:26;;;;;;;4.33;1.90;;;;;;;1.75;47.77;101388.94;5383580;32;32842;-63
2021/12/21 09:11:29;;;;;;;6.77;2.10;;;;;;;1.77;48.25;101395.00;5365610;32;35293;-68
2021/12/21 09:14:38;;;;;;;4.80;2.00;;;;;;;2.52;47.27;101390.66;5359947;32;35187;-69
2021/12/21 09:17:41;;;;;;;13.80;2.43;;;;;;;2.85;46.66;101381.44;5381505;32;34732;-67
2021/12/21 09:20:44;;;;;;;5.32;2.15;;;;;;;2.00;48.72;101390.09;5385818;32;33421;-63
2021/12/21 09:23:46;;;;;;;6.53;2.10;;;;;;;2.56;47.38;101386.34;5382766;32;34982;-67
2021/12/21 09:26:50;;;;;;;6.18;2.20;;;;;;;2.90;46.14;101384.94;5372293;32;33233;-68
2021/12/21 09:29:53;;;;;;;5.60;1.80;;;;;;;2.02;48.10;101388.38;5360277;32;32962;-64
2021/12/21 09:33:01;;;;;;;6.77;2.10;;;;;;;3.05;46.33;101387.66;5350806;32;35003;-68
2021/12/21 09:36:12;;;;;;;9.70;2.47;;;;;;;2.41;47.77;101387.09;5369646;32;32876;-68
2021/12/21 09:39:17;;;;;;;8.67;2.63;;;;;;;2.53;47.24;101388.94;5371483;32;33727;-66
2021/12/21 09:42:28;;;;;;;6.00;1.43;;;;;;;2.60;47.24;101385.53;5397562;32;32940;-69
2021/12/21 09:45:31;;;;;;;6.20;1.90;;;;;;;2.50;46.82;101384.56;5397390;32;35346;-69
2021/12/21 09:48:35;;;;;;;7.93;1.80;;;;;;;2.18;47.81;101385.09;5420326;32;33968;-67
2021/12/21 09:51:38;;;;;;;10.48;2.35;;;;;;;2.29;47.88;101379.19;5413645;32;34070;-63
2021/12/21 09:54:47;;;;;;;5.37;2.03;;;;;;;2.75;47.18;101364.03;5398218;32;35391;-78
2021/12/21 09:57:57;;;;;;;8.07;3.47;;;;;;;3.18;46.04;101373.91;5396097;32;34082;-68
2021/12/21 10:01:05;;;;;;;7.17;2.10;;;;;;;2.86;47.53;101365.87;5390061;32;34925;-64
2021/12/21 10:04:14;;;;;;;6.53;1.97;;;;;;;3.58;45.88;101361.12;5404996;32;35969;-69
2021/12/21 10:07:26;;;;;;;4.97;2.27;;;;;;;3.54;45.86;101354.16;5421639;32;34292;-62
2021/12/21 10:11:48;;;;;;;7.57;2.67;;;;;;;3.17;47.63;101359.19;5389162;32;34811;-73
2021/12/21 10:15:19;;;;;;;5.57;2.10;;;;;;;2.60;49.79;101351.81;5363435;32;34632;-68
2021/12/21 10:18:28;;;;;;;4.60;1.70;;;;;;;2.51;49.24;101357.75;5409185;32;35301;-67
2021/12/21 10:21:30;;;;;;;7.33;2.40;;;;;;;2.80;49.16;101355.44;5409129;32;34021;-65
2021/12/21 10:24:32;;;;;;;6.93;2.90;;;;;;;2.41;50.49;101349.03;5415588;32;33445;-67
2021/12/21 10:27:44;;;;;;;6.37;2.70;;;;;;;2.78;49.87;101351.09;5400829;32;33739;-67
2021/12/21 10:30:54;;;;;;;6.03;2.43;;;;;;;2.97;48.86;101351.25;5399674;32;34570;-69
2021/12/21 10:34:01;;;;;;;8.10;2.60;;;;;;;3.40;47.71;101348.91;5418683;32;33594;-73
2021/12/21 10:37:04;;;;;;;6.17;2.10;;;;;;;3.11;48.65;101342.69;5395002;32;32800;-68
2021/12/21 10:40:24;;;;;;;8.80;2.87;;;;;;;3.49;47.18;101338.56;5411256;32;34371;-65
2021/12/21 10:43:28;;;;;;;8.60;3.83;;;;;;;3.20;48.48;101333.19;5417955;32;34341;-65
2021/12/21 10:46:33;;;;;;;8.65;2.42;;;;;;;3.78;47.03;101323.09;5408981;32;34094;-65
2021/12/21 10:49:37;;;;;;;7.97;2.23;;;;;;;2.90;48.40;101327.81;5425233;32;33999;-61
2021/12/21 10:52:41;;;;;;;5.05;2.28;;;;;;;2.99;47.84;101322.69;5393889;32;33275;-64
2021/12/21 10:55:44;;;;;;;6.47;2.20;;;;;;;2.41;49.48;101333.47;5411133;32;34140;-64
2021/12/21 10:58:48;;;;;;;9.43;3.40;;;;;;;3.48;47.59;101321.25;5388877;32;34794;-66
2021/12/21 11:02:15;;;;;;;9.77;3.70;;;;;;;2.80;49.40;101326.00;5401554;32;35363;-66
2021/12/21 11:05:20;;;;;;;7.17;2.40;;;;;;;3.63;47.23;101306.56;5392504;32;34919;-66
2021/12/21 11:08:24;;;;;;;8.00;3.33;;;;;;;3.86;46.29;101310.09;5407336;32;33876;-69
2021/12/21 11:11:33;;;;;;;7.43;3.10;;;;;;;3.37;48.41;101304.72;5401899;32;34269;-71
2021/12/21 11:14:36;;;;;;;8.40;3.40;;;;;;;3.61;47.91;101303.97;5418693;32;34347;-73
2021/12/21 11:17:40;;;;;;;6.50;3.20;;;;;;;3.93;47.01;101301.47;5395522;32;34961;-71
2021/12/21 11:20:48;;;;;;;12.10;3.37;;;;;;;4.38;45.57;101294.63;5391315;32;33686;-62
2021/12/21 11:23:50;;;;;;;7.43;3.00;;;;;;;3.50;47.33;101290.06;5413780;32;34125;-61
2021/12/21 11:26:53;;;;;;;8.03;3.60;;;;;;;3.23;48.40;101296.88;5415832;32;35132;-62
2021/12/21 11:30:03;;;;;;;9.13;3.37;;;;;;;3.65;47.66;101289.25;5416500;32;34798;-62
2021/12/21 11:33:11;;;;;;;10.25;3.47;;;;;;;3.82;46.25;101286.72;5411751;32;35191;-60
2021/12/21 11:39:39;;;;;;;9.13;3.50;;;;;;;3.32;46.91;101296.03;5425177;32;35602;-69
2021/12/21 11:42:52;;;;;;;8.63;3.60;;;;;;;3.65;46.50;101290.09;5385159;32;34732;-67
2021/12/21 11:46:07;;;;;;;8.00;3.33;;;;;;;3.00;46.77;101288.06;5408372;32;34826;-65
2021/12/21 11:49:14;;;;;;;11.60;5.97;;;;;;;3.49;46.36;101285.72;5420669;32;34671;-68
2021/12/21 11:52:24;;;;;;;10.50;4.23;;;;;;;4.59;44.90;101281.59;5391877;32;33784;-65
2021/12/21 11:55:43;;;;;;;11.07;3.73;;;;;;;5.26;43.56;101266.69;5390278;32;32716;-71
2021/12/21 11:58:51;;;;;;;8.83;3.70;;;;;;;5.86;41.62;101277.72;5400874;32;34943;-63
2021/12/21 12:02:01;;;;;;;10.10;4.83;;;;;;;4.51;45.25;101280.75;5394226;32;33910;-69
2021/12/21 12:05:23;;;;;;;11.77;4.70;;;;;;;6.16;42.22;101279.31;5402806;32;35963;-69
2021/12/21 12:08:44;;;;;;;8.40;3.33;;;;;;;6.91;40.62;101265.66;5404424;32;33355;-68
2021/12/21 12:11:47;;;;;;;10.25;4.50;;;;;;;8.50;36.64;101261.81;5417873;32;34228;-68
2021/12/21 12:14:59;;;;;;;11.93;4.53;;;;;;;7.43;37.99;101260.69;5421214;32;34273;-70
2021/12/21 12:18:03;;;;;;;11.00;3.80;;;;;;;8.20;37.74;101264.88;5417025;32;34538;-67
2021/12/21 12:21:23;;;;;;;11.30;4.83;;;;;;;7.59;38.16;101258.75;5426384;32;34812;-70
2021/12/21 12:24:36;;;;;;;9.57;3.67;;;;;;;8.88;35.70;101260.25;5423839;32;33892;-69
2021/12/21 12:27:45;;;;;;;10.07;4.53;;;;;;;8.95;34.19;101260.16;5403355;32;34134;-69
2021/12/21 12:30:49;;;;;;;8.63;4.57;;;;;;;5.67;41.07;101271.78;5412165;32;34387;-67
2021/12/21 12:33:53;;;;;;;14.33;3.77;;;;;;;5.52;40.67;101271.81;5409286;32;32690;-74
2021/12/21 12:36:57;;;;;;;8.80;3.95;;;;;;;6.62;38.86;101263.28;5400683;32;34008;-67
2021/12/21 12:40:08;;;;;;;7.85;3.22;;;;;;;7.25;37.81;101255.69;5414159;32;34202;-72
2021/12/21 12:43:23;;;;;;;6.57;2.90;;;;;;;8.07;35.06;101244.13;5408247;32;35490;-73
2021/12/21 12:46:29;;;;;;;6.63;2.40;;;;;;;5.74;39.33;101268.25;5413162;32;32710;-67
2021/12/21 12:49:35;;;;;;;5.83;2.67;;;;;;;4.68;40.52;101267.69;5397278;32;33591;-66
2021/12/21 12:52:49;;;;;;;13.67;3.20;;;;;;;3.85;42.97;101260.69;5398693;32;33157;-63
2021/12/21 12:55:57;;;;;;;7.23;2.70;;;;;;;5.56;39.90;101265.72;5409208;32;34773;-69
2021/12/21 12:59:15;;;;;;;9.00;3.00;;;;;;;5.58;40.24;101262.22;5410915;32;34867;-67
2021/12/21 13:02:30;;;;;;;7.63;2.83;;;;;;;5.39;40.60;101263.19;5437481;32;34933;-65
2021/12/21 13:06:01;;;;;;;9.67;3.23;;;;;;;5.17;41.10;101267.59;5416230;32;33069;-64
2021/12/21 13:09:09;;;;;;;7.33;3.10;;;;;;;4.92;41.60;101271.16;5395357;32;34011;-63
2021/12/21 13:12:22;;;;;;;11.17;3.43;;;;;;;4.58;42.14;101276.41;5415623;32;34476;-63
2021/12/21 13:15:41;;;;;;;7.00;2.80;;;;;;;4.24;43.25;101265.94;5403441;32;32889;-63
2021/12/21 13:18:47;;;;;;;10.70;2.90;;;;;;;4.25;42.37;101272.91;5426444;32;34423;-63
2021/12/21 13:21:57;;;;;;;7.03;3.23;;;;;;;4.08;42.52;101272.88;5409341;32;34658;-63
2021/12/21 13:25:05;;;;;;;7.07;3.10;;;;;;;3.92;42.91;101281.50;5403732;32;32988;-63
2021/12/21 13:28:13;;;;;;;5.70;2.67;;;;;;;3.70;43.64;101272.78;5393723;32;34414;-62
2021/12/21 13:31:21;;;;;;;8.33;2.93;;;;;;;3.81;44.35;101278.03;5415763;32;35353;-62
2021/12/21 13:34:26;;;;;;;9.30;3.30;;;;;;;4.39;43.06;101274.66;5401903;32;35076;-67
2021/12/21 13:37:30;;;;;;;6.93;2.80;;;;;;;3.52;44.93;101284.00;5415195;32;34909;-63
2021/12/21 13:40:32;;;;;;;7.33;3.10;;;;;;;3.71;45.66;101271.94;5401672;32;32938;-63
2021/12/21 13:43:38;;;;;;;11.23;3.57;;;;;;;3.82;45.58;101269.38;5407048;32;33172;-62
2021/12/21 13:46:43;;;;;;;12.50;3.53;;;;;;;3.43;46.76;101277.91;5403792;32;33919;-66
2021/12/21 13:50:23;;;;;;;9.57;3.93;;;;;;;2.90;48.51;101287.16;5391124;32;34276;-63
2021/12/21 13:53:26;;;;;;;8.27;3.27;;;;;;;3.03;48.21;101274.22;5417456;32;34966;-64
2021/12/21 13:56:31;;;;;;;6.67;3.37;;;;;;;3.63;46.93;101271.03;5408004;32;34808;-64
2021/12/21 13:59:36;;;;;;;7.80;3.53;;;;;;;3.38;47.62;101270.06;5417939;32;35013;-64
2021/12/21 14:02:42;;;;;;;8.13;3.63;;;;;;;3.01;48.66;101278.53;5389980;32;35061;-66
2021/12/21 14:05:49;;;;;;;10.17;3.43;;;;;;;3.63;47.15;101271.03;5398458;32;34903;-63
2021/12/21 14:09:00;;;;;;;12.83;4.13;;;;;;;3.43;47.77;101270.09;5418373;32;35578;-63
2021/12/21 14:12:13;;;;;;;11.47;3.57;;;;;;;3.67;47.17;101259.81;5409146;32;33001;-66
2021/12/21 14:15:16;;;;;;;8.63;3.57;;;;;;;3.84;46.44;101261.56;5401178;32;34896;-67
2021/12/21 14:18:32;;;;;;;9.33;3.40;;;;;;;3.75;45.85;101267.63;5411526;32;34903;-64
2021/12/21 14:21:37;;;;;;;7.60;3.60;;;;;;;3.34;47.11;101277.84;5397611;32;34018;-65
2021/12/21 14:24:48;;;;;;;8.23;3.70;;;;;;;4.15;45.09;101260.75;5396257;32;34022;-66
2021/12/21 14:27:51;;;;;;;9.90;3.63;;;;;;;3.92;45.53;101273.72;5387191;32;33836;-66
2021/12/21 14:31:05;;;;;;;7.40;3.20;;;;;;;3.48;46.27;101279.66;5406250;32;34712;-65
2021/12/21 14:38:16;;;;;;;8.98;4.40;;;;;;;3.84;45.05;101274.56;5835173;27;20157;-63
2021/12/21 14:41:20;;;;;;;9.80;3.17;;;;;;;3.37;47.32;101296.94;5362358;32;35371;-65
2021/12/21 14:44:30;;;;;;;11.77;3.70;;;;;;;3.76;46.12;101282.34;5396055;32;33903;-66
2021/12/21 14:47:53;;;;;;;10.70;3.57;;;;;;;3.75;46.62;101284.09;5370508;32;34872;-64
2021/12/21 14:51:10;;;;;;;11.23;4.07;;;;;;;3.61;47.43;101275.38;5362098;32;33392;-64
2021/12/21 14:54:23;;;;;;;15.20;4.50;;;;;;;3.33;47.92;101286.50;5369695;32;34445;-63
2021/12/21 14:57:47;;;;;;;10.33;4.17;;;;;;;3.93;46.87;101285.88;5382111;32;36590;-68
2021/12/21 15:01:04;;;;;;;12.20;4.07;;;;;;;3.83;46.70;101283.22;5378200;32;34648;-67
2021/12/21 15:04:22;;;;;;;10.53;4.77;;;;;;;3.85;46.91;101290.16;5376298;32;33226;-63
2021/12/21 15:07:27;;;;;;;9.53;3.90;;;;;;;3.12;48.32;101303.72;5384639;32;32818;-68
2021/12/21 15:10:45;;;;;;;10.45;4.07;;;;;;;3.37;48.01;101303.84;5366822;32;34074;-62
2021/12/21 15:14:04;;;;;;;10.47;4.37;;;;;;;3.69;47.90;101297.06;5368695;32;33667;-62
2021/12/21 15:17:09;;;;;;;9.83;3.80;;;;;;;3.29;49.05;101308.16;5348518;32;34681;-66
2021/12/21 15:20:16;;;;;;;9.73;3.77;;;;;;;3.34;49.08;101304.69;5348406;32;34848;-68
2021/12/21 15:23:21;;;;;;;11.67;4.33;;;;;;;3.22;49.55;101305.53;5340379;32;33008;-61
2021/12/21 15:26:26;;;;;;;12.07;3.87;;;;;;;2.85;50.56;101316.53;5345413;32;34001;-61
2021/12/21 15:29:30;;;;;;;10.43;4.30;;;;;;;2.53;51.65;101314.53;5342529;32;34099;-67
2021/12/21 15:32:33;;;;;;;9.27;4.40;;;;;;;2.62;51.57;101312.00;5334627;32;33060;-62
2021/12/21 15:35:37;;;;;;;10.63;5.23;;;;;;;3.13;50.15;101318.44;5345032;33;33146;-63
2021/12/21 15:38:44;;;;;;;15.23;5.77;;;;;;;2.78;51.39;101315.63;5337670;32;35091;-67
2021/12/21 15:41:55;;;;;;;12.83;4.73;;;;;;;3.03;50.67;101324.44;5359236;32;33884;-61
2021/12/21 15:45:01;;;;;;;13.77;4.90;;;;;;;3.59;49.42;101308.28;5347582;32;34082;-64
2021/12/21 15:48:05;;;;;;;14.53;6.13;;;;;;;3.70;49.07;101306.59;5353612;32;33351;-68
2021/12/21 15:51:11;;;;;;;11.20;4.57;;;;;;;2.53;51.95;101317.12;5351752;32;34111;-62
2021/12/21 15:54:16;;;;;;;10.53;4.50;;;;;;;2.98;50.73;101321.81;5348600;32;35548;-61
2021/12/21 15:57:21;;;;;;;10.53;4.50;;;;;;;3.03;50.66;101321.84;5359628;32;33653;-67